createdAt,value
2024-02-13T00:00:30.858Z,8.32
2024-02-13T00:03:45.603Z,8.29
2024-02-13T00:07:02.029Z,8.27
2024-02-13T00:10:15.486Z,8.21
2024-02-13T00:13:29.782Z,8.25
2024-02-13T00:16:48.027Z,8.22
2024-02-13T00:19:59.870Z,8.14
2024-02-13T00:23:11.207Z,8.07
2024-02-13T00:26:27.493Z,8.14
2024-02-13T00:29:44.845Z,8.14
2024-02-13T00:32:55.573Z,8.20
2024-02-13T00:36:09.587Z,8.21
2024-02-13T00:39:23.691Z,8.14
2024-02-13T00:42:40.963Z,8.04
2024-02-13T00:45:58.751Z,8.03
2024-02-13T00:49:16.608Z,8.04
2024-02-13T00:52:35.244Z,8.01
2024-02-13T00:55:49.421Z,7.96
2024-02-13T00:59:11.468Z,7.91
2024-02-13T01:02:36.684Z,7.90
2024-02-13T01:05:53.128Z,7.91
2024-02-13T01:09:10.243Z,7.90
2024-02-13T01:12:23.308Z,7.95
2024-02-13T01:15:47.912Z,7.91
2024-02-13T01:19:01.075Z,7.91
2024-02-13T01:22:14.761Z,7.83
2024-02-13T01:25:33.001Z,7.87
2024-02-13T01:28:43.820Z,7.87
2024-02-13T01:31:56.478Z,7.87
2024-02-13T01:35:10.662Z,7.86
2024-02-13T01:38:24.520Z,7.80
2024-02-13T01:41:41.424Z,7.83
2024-02-13T01:44:59.145Z,7.80
2024-02-13T01:48:16.286Z,7.82
2024-02-13T01:51:34.096Z,7.81
2024-02-13T01:54:49.199Z,7.83
2024-02-13T01:58:00.709Z,7.82
2024-02-13T02:01:14.291Z,7.83
2024-02-13T02:04:25.766Z,7.76
2024-02-13T02:07:40.621Z,7.78
2024-02-13T02:10:54.265Z,7.76
2024-02-13T02:14:05.061Z,7.80
2024-02-13T02:17:16.764Z,7.76
2024-02-13T02:20:29.444Z,7.79
2024-02-13T02:23:44.318Z,7.73
2024-02-13T02:26:58.439Z,7.68
2024-02-13T02:30:10.957Z,7.71
2024-02-13T02:33:27.298Z,7.62
2024-02-13T02:36:48.935Z,7.54
2024-02-13T02:40:02.885Z,7.56
2024-02-13T02:43:13.419Z,7.53
2024-02-13T02:46:27.174Z,7.46
2024-02-13T02:49:43.980Z,7.48
2024-02-13T02:53:01.133Z,7.37
2024-02-13T02:56:22.854Z,7.42
2024-02-13T02:59:39.823Z,7.32
2024-02-13T03:02:55.123Z,7.40
2024-02-13T03:06:10.076Z,7.37
2024-02-13T03:09:29.752Z,7.26
2024-02-13T03:12:45.597Z,7.29
2024-02-13T03:16:01.672Z,7.35
2024-02-13T03:19:13.650Z,7.27
2024-02-13T03:22:29.508Z,7.29
2024-02-13T03:25:45.034Z,7.27
2024-02-13T03:28:56.902Z,7.23
2024-02-13T03:32:09.722Z,7.12
2024-02-13T03:35:25.996Z,7.14
2024-02-13T03:38:40.700Z,7.10
2024-02-13T03:41:54.685Z,7.05
2024-02-13T03:45:09.685Z,7.06
2024-02-13T03:48:24.447Z,6.97
2024-02-13T03:51:36.654Z,6.99
2024-02-13T03:54:49.355Z,6.97
2024-02-13T03:57:54.448Z,6.86
2024-02-13T04:01:01.699Z,6.84
2024-02-13T04:04:11.867Z,6.89
2024-02-13T04:07:27.768Z,6.84
2024-02-13T04:10:42.669Z,6.88
2024-02-13T04:13:54.771Z,6.85
2024-02-13T04:17:08.340Z,6.87
2024-02-13T04:20:20.321Z,6.90
2024-02-13T04:23:31.874Z,6.89
2024-02-13T04:26:43.444Z,6.86
2024-02-13T04:29:52.597Z,6.85
2024-02-13T04:33:02.493Z,6.85
2024-02-13T04:36:07.109Z,6.78
2024-02-13T04:39:17.834Z,6.79
2024-02-13T04:42:33.546Z,6.72
2024-02-13T04:45:43.177Z,6.72
2024-02-13T04:48:54.053Z,6.72
2024-02-13T04:52:03.925Z,6.65
2024-02-13T04:55:17.067Z,6.55
2024-02-13T04:58:29.428Z,6.47
2024-02-13T05:01:44.870Z,6.50
2024-02-13T05:05:11.949Z,6.55
2024-02-13T05:08:27.250Z,6.49
2024-02-13T05:11:39.528Z,6.47
2024-02-13T05:14:52.941Z,6.41
2024-02-13T05:18:03.614Z,6.42
2024-02-13T05:21:16.485Z,6.42
2024-02-13T05:24:27.946Z,6.48
2024-02-13T05:27:43.425Z,6.43
2024-02-13T05:30:54.702Z,6.35
2024-02-13T05:34:08.541Z,6.28
2024-02-13T05:37:22.974Z,6.29
2024-02-13T05:40:37.161Z,6.26
2024-02-13T05:43:52.657Z,6.20
2024-02-13T05:47:05.124Z,6.19
2024-02-13T05:50:21.691Z,6.14
2024-02-13T05:53:39.126Z,6.11
2024-02-13T05:56:52.146Z,6.08
2024-02-13T06:00:05.589Z,6.02
2024-02-13T06:03:21.500Z,6.10
2024-02-13T06:06:33.303Z,6.09
2024-02-13T06:09:44.380Z,6.08
2024-02-13T06:12:55.773Z,6.17
2024-02-13T06:16:04.558Z,6.11
2024-02-13T06:19:13.968Z,6.11
2024-02-13T06:22:27.981Z,6.17
2024-02-13T06:25:38.985Z,6.22
2024-02-13T06:28:48.136Z,6.28
2024-02-13T06:31:59.173Z,6.33
2024-02-13T06:35:09.359Z,6.39
2024-02-13T06:38:19.544Z,6.34
2024-02-13T06:41:24.775Z,6.38
2024-02-13T06:44:41.921Z,6.35
2024-02-13T06:47:53.134Z,6.34
2024-02-13T06:51:03.376Z,6.33
2024-02-13T06:54:12.709Z,6.31
2024-02-13T06:57:19.944Z,6.31
2024-02-13T07:00:29.910Z,6.34
2024-02-13T07:03:42.329Z,6.39
2024-02-13T07:06:59.289Z,6.42
2024-02-13T07:10:23.175Z,6.50
2024-02-13T07:13:35.430Z,6.60
2024-02-13T07:16:52.329Z,6.66
2024-02-13T07:20:01.615Z,6.71
2024-02-13T07:23:14.463Z,6.80
2024-02-13T07:26:23.785Z,6.97
2024-02-13T07:29:32.997Z,7.06
2024-02-13T07:32:41.021Z,7.42
2024-02-13T07:35:51.042Z,7.61
2024-02-13T07:38:57.747Z,7.71
2024-02-13T07:42:04.317Z,8.62
2024-02-13T07:45:10.954Z,9.69
2024-02-13T07:48:15.542Z,9.59
2024-02-13T07:51:23.824Z,9.76
2024-02-13T07:54:34.114Z,10.28
2024-02-13T07:57:39.764Z,10.88
2024-02-13T08:00:49.409Z,11.03
2024-02-13T08:04:02.270Z,11.47
2024-02-13T08:07:13.288Z,11.02
2024-02-13T08:10:26.258Z,10.53
2024-02-13T08:13:40.268Z,9.61
2024-02-13T08:16:53.411Z,9.50
2024-02-13T08:20:07.376Z,9.36
2024-02-13T08:23:18.545Z,8.99
2024-02-13T08:26:32.795Z,9.17
2024-02-13T08:29:43.805Z,9.06
2024-02-13T08:32:50.579Z,9.22
2024-02-13T08:36:00.957Z,10.26
2024-02-13T08:39:09.304Z,11.11
2024-02-13T08:42:18.469Z,11.16
2024-02-13T08:45:25.140Z,10.34
2024-02-13T08:48:35.429Z,9.91
2024-02-13T08:51:48.892Z,9.68
2024-02-13T08:54:57.133Z,9.66
2024-02-13T08:58:03.512Z,9.66
2024-02-13T09:01:11.645Z,9.69
2024-02-13T09:04:20.246Z,9.81
2024-02-13T09:07:33.854Z,9.77
2024-02-13T09:10:47.607Z,9.90
2024-02-13T09:13:55.991Z,10.03
2024-02-13T09:17:01.528Z,10.15
2024-02-13T09:20:17.184Z,10.05
2024-02-13T09:23:27.869Z,10.19
2024-02-13T09:26:42.496Z,10.24
2024-02-13T09:29:52.404Z,10.48
2024-02-13T09:33:03.209Z,10.60
2024-02-13T09:36:18.161Z,10.65
2024-02-13T09:39:26.249Z,10.73
2024-02-13T09:42:30.049Z,10.73
2024-02-13T09:45:37.406Z,10.69
2024-02-13T09:48:50.294Z,10.62
2024-02-13T09:51:57.876Z,10.64
2024-02-13T09:55:03.670Z,10.82
2024-02-13T09:58:08.972Z,10.77
2024-02-13T10:01:15.218Z,10.99
2024-02-13T10:04:24.508Z,10.99
2024-02-13T10:07:30.713Z,11.09
2024-02-13T10:10:35.142Z,11.11
2024-02-13T10:13:46.136Z,10.99
2024-02-13T10:16:59.051Z,11.19
2024-02-13T10:20:08.177Z,11.55
2024-02-13T10:23:19.471Z,11.81
2024-02-13T10:26:27.198Z,11.94
2024-02-13T10:29:46.579Z,12.09
2024-02-13T10:32:54.167Z,12.26
2024-02-13T10:35:59.234Z,12.28
2024-02-13T10:39:08.540Z,12.41
2024-02-13T10:42:17.416Z,12.26
2024-02-13T10:45:34.299Z,12.18
2024-02-13T10:49:17.330Z,12.19
2024-02-13T10:52:26.099Z,12.04
2024-02-13T10:55:36.500Z,12.07
2024-02-13T10:58:48.163Z,12.09
2024-02-13T11:01:56.635Z,12.00
2024-02-13T11:05:08.689Z,11.98
2024-02-13T11:08:15.993Z,12.05
2024-02-13T11:11:27.993Z,12.09
2024-02-13T11:14:38.277Z,12.09
2024-02-13T11:17:49.971Z,12.07
2024-02-13T11:21:09.208Z,12.03
2024-02-13T11:24:23.944Z,11.98
2024-02-13T11:27:34.055Z,11.92
2024-02-13T11:30:44.400Z,11.99
2024-02-13T11:34:13.146Z,11.90
2024-02-13T11:37:23.457Z,11.89
2024-02-13T11:40:35.769Z,11.84
2024-02-13T11:43:40.503Z,11.76
2024-02-13T11:46:57.955Z,11.76
2024-02-13T11:50:09.007Z,11.97
2024-02-13T11:53:19.909Z,11.80
2024-02-13T11:56:24.779Z,11.85
2024-02-13T11:59:29.256Z,11.82
2024-02-13T12:02:35.113Z,11.80
2024-02-13T12:05:40.896Z,11.87
2024-02-13T12:08:46.194Z,11.76
2024-02-13T12:11:51.067Z,11.70
2024-02-13T12:14:54.738Z,11.79
2024-02-13T12:17:59.610Z,12.02
2024-02-13T12:21:09.612Z,12.10
2024-02-13T12:24:15.228Z,12.13
2024-02-13T12:27:20.397Z,12.10
2024-02-13T12:30:24.315Z,12.21
2024-02-13T12:33:27.655Z,12.36
2024-02-13T12:36:32.031Z,12.37
2024-02-13T12:39:38.866Z,12.24
2024-02-13T12:42:45.501Z,12.38
2024-02-13T12:45:48.899Z,12.51
2024-02-13T12:48:52.869Z,12.58
2024-02-13T12:51:58.082Z,12.37
2024-02-13T12:55:03.240Z,12.14
2024-02-13T12:58:09.261Z,12.02
2024-02-13T13:01:17.396Z,12.12
2024-02-13T13:04:23.923Z,11.96
2024-02-13T13:07:33.578Z,12.20
2024-02-13T13:10:37.455Z,12.16
2024-02-13T13:13:42.380Z,11.95
2024-02-13T13:16:47.328Z,11.88
2024-02-13T13:19:51.757Z,11.77
2024-02-13T13:22:56.604Z,11.71
2024-02-13T13:26:01.345Z,11.83
2024-02-13T13:29:05.835Z,11.84
2024-02-13T13:32:12.563Z,12.05
2024-02-13T13:35:21.582Z,12.24
2024-02-13T13:38:28.670Z,12.31
2024-02-13T13:41:38.002Z,12.36
2024-02-13T13:44:45.656Z,12.20
2024-02-13T13:47:49.748Z,12.03
2024-02-13T13:50:56.529Z,12.06
2024-02-13T13:54:04.563Z,12.07
2024-02-13T13:57:14.314Z,12.12
2024-02-13T14:00:23.775Z,12.29
2024-02-13T14:03:35.577Z,12.13
2024-02-13T14:06:45.212Z,11.98
2024-02-13T14:09:54.296Z,11.88
2024-02-13T14:13:02.086Z,11.85
2024-02-13T14:16:13.177Z,11.71
2024-02-13T14:19:19.347Z,11.57
2024-02-13T14:22:28.082Z,11.63
2024-02-13T14:25:31.398Z,11.52
2024-02-13T14:28:40.913Z,11.43
2024-02-13T14:31:48.728Z,11.35
2024-02-13T14:34:55.164Z,11.16
2024-02-13T14:38:01.444Z,11.08
2024-02-13T14:41:12.317Z,10.94
2024-02-13T14:44:22.979Z,10.75
2024-02-13T14:47:31.249Z,10.62
2024-02-13T14:50:36.330Z,10.59
2024-02-13T14:53:39.331Z,10.55
2024-02-13T14:56:44.736Z,10.52
2024-02-13T14:59:54.647Z,10.47
2024-02-13T15:03:02.537Z,10.37
2024-02-13T15:06:09.854Z,10.33
2024-02-13T15:09:14.668Z,10.30
2024-02-13T15:12:25.664Z,10.25
2024-02-13T15:15:32.707Z,10.18
2024-02-13T15:18:40.586Z,10.08
2024-02-13T15:21:52.230Z,10.05
2024-02-13T15:25:01.363Z,10.03
2024-02-13T15:28:09.820Z,10.06
2024-02-13T15:31:15.660Z,10.06
2024-02-13T15:34:18.626Z,10.10
2024-02-13T15:37:40.265Z,10.05
2024-02-13T15:41:01.499Z,9.91
2024-02-13T15:44:23.331Z,9.81
2024-02-13T15:47:26.238Z,9.76
2024-02-13T15:50:30.152Z,9.62
2024-02-13T15:53:35.140Z,9.42
2024-02-13T15:56:50.416Z,9.26
2024-02-13T16:00:00.441Z,9.15
2024-02-13T16:03:10.811Z,9.12
2024-02-13T16:06:18.837Z,9.03
2024-02-13T16:09:29.685Z,9.07
2024-02-13T16:12:38.773Z,8.99
2024-02-13T16:15:48.887Z,8.89
2024-02-13T16:18:58.175Z,8.79
2024-02-13T16:22:10.285Z,8.60
2024-02-13T16:25:21.732Z,8.52
2024-02-13T16:28:33.417Z,8.44
2024-02-13T16:31:48.650Z,8.36
2024-02-13T16:35:04.396Z,8.29
2024-02-13T16:38:18.309Z,8.12
2024-02-13T16:41:37.666Z,8.08
2024-02-13T16:44:53.094Z,8.01
2024-02-13T16:48:04.971Z,7.92
2024-02-13T16:51:23.579Z,7.85
2024-02-13T16:54:39.781Z,7.78
2024-02-13T16:57:59.935Z,7.72
2024-02-13T17:01:10.950Z,7.61
2024-02-13T17:04:30.925Z,7.54
2024-02-13T17:07:49.250Z,7.43
2024-02-13T17:11:02.394Z,7.51
2024-02-13T17:14:17.278Z,7.41
2024-02-13T17:17:30.456Z,7.35
2024-02-13T17:20:45.292Z,7.36
2024-02-13T17:23:56.763Z,7.26
2024-02-13T17:27:09.030Z,7.20
2024-02-13T17:30:23.549Z,7.17
2024-02-13T17:33:37.289Z,7.16
2024-02-13T17:36:47.271Z,7.04
2024-02-13T17:40:03.258Z,7.00
2024-02-13T17:43:16.296Z,6.96
2024-02-13T17:46:30.200Z,6.94
2024-02-13T17:49:46.455Z,6.90
2024-02-13T17:52:57.016Z,6.90
2024-02-13T17:56:12.112Z,6.80
2024-02-13T17:59:26.714Z,6.80
2024-02-13T18:02:46.254Z,6.72
2024-02-13T18:06:03.889Z,6.66
2024-02-13T18:09:19.762Z,6.68
2024-02-13T18:12:37.594Z,6.63
2024-02-13T18:15:53.976Z,6.67
2024-02-13T18:19:12.298Z,6.67
2024-02-13T18:22:25.233Z,6.66
2024-02-13T18:25:46.784Z,6.60
2024-02-13T18:29:03.497Z,6.55
2024-02-13T18:32:23.409Z,6.61
2024-02-13T18:35:47.973Z,6.76
2024-02-13T18:39:04.783Z,6.75
2024-02-13T18:42:17.116Z,6.76
2024-02-13T18:45:30.563Z,6.87
2024-02-13T18:48:44.048Z,6.79
2024-02-13T18:52:01.942Z,6.88
2024-02-13T18:55:14.196Z,6.86
2024-02-13T18:58:44.724Z,6.96
2024-02-13T19:02:11.182Z,6.98
2024-02-13T19:05:29.513Z,7.01
2024-02-13T19:08:47.070Z,7.01
2024-02-13T19:12:07.778Z,6.93
2024-02-13T19:15:23.854Z,7.01
2024-02-13T19:18:43.318Z,7.02
2024-02-13T19:21:56.733Z,7.03
2024-02-13T19:25:16.634Z,6.95
2024-02-13T19:28:43.633Z,6.84
2024-02-13T19:31:59.918Z,6.67
2024-02-13T19:35:10.980Z,6.62
2024-02-13T19:38:26.114Z,6.70
2024-02-13T19:41:38.023Z,6.76
2024-02-13T19:44:49.423Z,6.63
2024-02-13T19:48:03.416Z,6.61
2024-02-13T19:51:14.904Z,6.51
2024-02-13T19:54:27.760Z,6.41
2024-02-13T19:57:38.589Z,6.33
2024-02-13T20:00:50.399Z,6.25
2024-02-13T20:04:04.832Z,6.18
2024-02-13T20:07:22.875Z,6.11
2024-02-13T20:10:37.701Z,5.91
2024-02-13T20:13:53.800Z,5.84
2024-02-13T20:17:15.253Z,5.93
2024-02-13T20:20:34.480Z,5.99
2024-02-13T20:23:54.674Z,6.00
2024-02-13T20:27:04.313Z,6.09
2024-02-13T20:30:17.928Z,6.08
2024-02-13T20:33:35.449Z,6.16
2024-02-13T20:36:56.818Z,6.17
2024-02-13T20:40:18.865Z,6.16
2024-02-13T20:43:35.320Z,6.10
2024-02-13T20:46:46.284Z,6.12
2024-02-13T20:50:01.329Z,6.08
2024-02-13T20:53:10.609Z,6.09
2024-02-13T20:56:23.886Z,6.02
2024-02-13T20:59:37.248Z,6.04
2024-02-13T21:03:11.121Z,6.01
2024-02-13T21:06:34.928Z,6.07
2024-02-13T21:10:01.971Z,6.05
2024-02-13T21:13:17.944Z,5.98
2024-02-13T21:16:37.034Z,5.95
2024-02-13T21:20:03.476Z,5.84
2024-02-13T21:23:35.436Z,5.79
2024-02-13T21:26:54.244Z,5.71
2024-02-13T21:30:11.011Z,5.61
2024-02-13T21:33:24.860Z,5.52
2024-02-13T21:36:37.278Z,5.51
2024-02-13T21:39:52.627Z,5.40
2024-02-13T21:43:03.804Z,5.30
2024-02-13T21:46:18.104Z,5.33
2024-02-13T21:49:35.497Z,5.42
2024-02-13T21:52:49.371Z,5.31
2024-02-13T21:56:03.662Z,5.34
2024-02-13T21:59:19.807Z,5.45
2024-02-13T22:02:39.045Z,5.46
2024-02-13T22:05:53.745Z,5.46
2024-02-13T22:09:07.139Z,5.39
2024-02-13T22:12:24.748Z,5.31
2024-02-13T22:15:42.302Z,5.29
2024-02-13T22:18:58.804Z,5.21
2024-02-13T22:22:11.967Z,5.21
2024-02-13T22:25:31.620Z,5.19
2024-02-13T22:28:47.754Z,5.16
2024-02-13T22:32:00.770Z,5.16
2024-02-13T22:35:13.775Z,5.04
2024-02-13T22:38:39.574Z,5.01
2024-02-13T22:41:55.507Z,5.10
2024-02-13T22:45:09.864Z,5.08
2024-02-13T22:48:23.021Z,5.08
2024-02-13T22:51:45.233Z,5.07
2024-02-13T22:54:55.356Z,5.07
2024-02-13T22:58:15.997Z,5.01
2024-02-13T23:01:41.316Z,5.02
2024-02-13T23:05:04.867Z,5.05
2024-02-13T23:08:21.177Z,5.11
2024-02-13T23:11:38.758Z,5.07
2024-02-13T23:14:54.112Z,5.10
2024-02-13T23:18:08.607Z,5.04
2024-02-13T23:21:22.014Z,5.06
2024-02-13T23:24:37.758Z,5.02
2024-02-13T23:27:57.869Z,5.08
2024-02-13T23:31:09.902Z,5.02
2024-02-13T23:34:24.603Z,5.10
2024-02-13T23:37:44.425Z,5.10
2024-02-13T23:40:54.638Z,5.03
2024-02-13T23:44:07.342Z,4.98
2024-02-13T23:47:21.022Z,5.09
2024-02-13T23:50:32.594Z,5.12
2024-02-13T23:53:44.716Z,5.05
2024-02-13T23:56:57.799Z,5.01
